SCC: Utah: Qualifying times

Pos Num Class Team Time Gap To 1st Speed --- --- ----- ------------------------------ ---------- ------- ------- ------- 1. 99 GS Automatic Racing 3:11.821 84.191 2. 49...

Pos Num Class Team                                 Time     Gap  To 1st   Speed
--- --- ----- ------------------------------ ---------- ------- ------- -------
 1.  99 GS    Automatic Racing                 3:11.821                  84.191
 2.  49 GS    Marcus Motorsports               3:12.064   0.243   0.243  84.084
 3.  46 GS    Fall-Line Motorsports            3:12.836   0.772   1.015  83.748
 4.  90 GS    Automatic Racing                 3:12.915   0.079   1.094  83.714
 5.  09 GS    Automatic Racing                 3:12.920   0.005   1.099  83.711
 6.  97 GS    Turner Motorsport                3:13.211   0.291   1.390  83.585
 7.  79 GS    Kinetic Motorsports              3:13.214   0.003   1.393  83.584
 8.  39 GS    TRG                              3:13.419   0.205   1.598  83.495
 9.  96 GS    Turner Motorsport                3:13.516   0.097   1.695  83.454
10.  55 GS    Hyper Sport                      3:13.629   0.113   1.808  83.405
11.  80 GS    Kinetic Motorsports              3:13.685   0.056   1.864  83.381
12.  38 GS    BGB Motorsports                  3:13.749   0.064   1.928  83.353
13.  91 GS    Automatic Racing                 3:14.231   0.482   2.410  83.146
14.  17 GS    Team Centurion                   3:14.273   0.042   2.452  83.128
15.  28 GS    Fall-Line Motorsports            3:14.518   0.245   2.697  83.024
16.  37 GS    JBS Racing                       3:14.758   0.240   2.937  82.921
17.  78 GS    Kinetic Motorsports              3:14.780   0.022   2.959  82.912
18. 156 GS    Hyper Sport                      3:15.296   0.516   3.475  82.693
19.  25 GS    Fiorano/C-MAX Racing             3:15.316   0.020   3.495  82.684
20. 112 GS    Larry H Miller Racing            3:15.356   0.040   3.535  82.668
21. 199 GS    Bush Decor and Construction      3:15.489   0.133   3.668  82.611
22.  41 GS    TRG                              3:15.563   0.074   3.742  82.580
23.  59 GS    Rehagen Racing                   3:15.841   0.278   4.020  82.463
24.  52 GS    Rehagen Racing                   3:15.942   0.101   4.121  82.420
25.  30 GS    ACG Motorsports                  3:16.314   0.372   4.493  82.264
26. 137 GS    JBS Motorsports                  3:16.363   0.049   4.542  82.244
27.  93 ST    GOTO Racing                      3:16.541   0.178   4.720  82.169
28. 154 GS    Rehagen Racing                   3:16.840   0.299   5.019  82.044
29.  88 GS    Ranger Sports Racing             3:16.936   0.096   5.115  82.004
30.  54 GS    Hyper Sport                      3:17.248   0.312   5.427  81.875
31.  87 GS    Marcus Motorsports               3:17.824   0.576   6.003  81.636
32.  40 GS    TRG                              3:17.947   0.123   6.126  81.585
33.  11 GS    Southwest Racers Group           3:18.204   0.257   6.383  81.480
34.  95 ST    Turner Motorsport                3:18.622   0.418   6.801  81.308
35.  01 ST    Georgian Bay Motorsports         3:18.662   0.040   6.841  81.292
36.  75 ST    Kensai Racing                    3:19.504   0.842   7.683  80.949
37.  89 GS    Ranger Sports Racing             3:19.738   0.234   7.917  80.854
38.  76 ST    Kensai Racing                    3:20.205   0.467   8.384  80.665
39. 111 ST    ICY/ Phoenix Racing              3:20.802   0.597   8.981  80.425
40.  86 ST    Classic BMW - Plano              3:21.122   0.320   9.301  80.298
41.  74 ST    Kensai Racing                    3:21.130   0.008   9.309  80.294
42.  51 ST    Tom Mitchell Motorsports         3:21.241   0.111   9.420  80.250
43.  22 ST    HART                             3:21.342   0.101   9.521  80.210
44.  53 ST    Predator Auto Sport              3:21.474   0.132   9.653  80.157
45. 141 ST    ICY/ Phoenix Racing              3:21.577   0.103   9.756  80.116
46.  85 ST    Classic BMW - Plano              3:21.972   0.395  10.151  79.960
47.  56 ST    BSI Racing                       3:22.033   0.061  10.212  79.935
48.  69 ST    SpeedSource                      3:22.163   0.130  10.342  79.884
49.  31 ST    i-MOTO Racing                    3:22.460   0.297  10.639  79.767
50.  62 ST    Roar Racing                      3:23.615   1.155  11.794  79.314
51. 126 ST    Fountain Motorsports             3:23.711   0.096  11.890  79.277
52. 138 ST    GS Motorsports                   3:23.771   0.060  11.950  79.254
53.  24 ST    V-Pack Motorsport                3:24.238   0.467  12.417  79.072
54.  58 ST    BSI Racing                       3:24.682   0.444  12.861  78.901
55.  12 ST    Southwest Racers Group           3:24.858   0.176  13.037  78.833
56.  06 ST    Project Motorsports              3:25.092   0.234  13.271  78.743
57. 198 ST    RSR Motorsports                  3:25.296   0.204  13.475  78.665
58.  32 ST    i-MOTO Racing                    3:25.312   0.016  13.491  78.659
59. 197 ST    RSR Motorsports                  3:25.711   0.399  13.890  78.506
60.  63 ST    Roar Racing                      3:25.923   0.212  14.102  78.425
61. 127 ST    Fountain Motorsports             3:26.120   0.197  14.299  78.350
62.  70 ST    SpeedSource                      3:27.715   1.595  15.894  77.749
63.  26 GS    Fiorano/C-MAX Racing              No Time
64.  33 GS    Playboy Racing                    No Time
65.  35 GS    Playboy Racing                    No Time
66.  42 GS    TRG                               No Time
67.  72 GS    BGB Motorsports                   No Time

Be part of something big

Write a comment
Show comments
About this article
Series Grand-Am
Teams Kinetic Motorsports , Rehagen Racing , Turner Motorsport , Automatic Racing , HART , Fall-Line Motorsports , SpeedSource , Phoenix Racing